createdAt,value
2019-04-16T00:00:02.060Z,23.33
2019-04-16T00:02:54.879Z,23.57
2019-04-16T00:05:30.101Z,24.90
2019-04-16T00:08:19.477Z,25.12
2019-04-16T00:10:52.184Z,22.80
2019-04-16T00:13:43.396Z,23.38
2019-04-16T00:16:15.153Z,25.50
2019-04-16T00:18:57.323Z,24.40
2019-04-16T00:21:46.183Z,22.93
2019-04-16T00:24:23.663Z,23.63
2019-04-16T00:26:59.131Z,21.77
2019-04-16T00:29:33.053Z,22.70
2019-04-16T00:32:26.203Z,22.93
2019-04-16T00:34:58.116Z,22.20
2019-04-16T00:37:29.887Z,20.73
2019-04-16T00:40:02.090Z,19.93
2019-04-16T00:42:35.271Z,21.87
2019-04-16T00:45:07.357Z,27.10
2019-04-16T00:47:39.156Z,23.43
2019-04-16T00:50:11.046Z,21.67
2019-04-16T00:52:42.942Z,20.80
2019-04-16T00:55:14.801Z,21.77
2019-04-16T00:57:48.619Z,24.67
2019-04-16T01:00:22.299Z,21.03
2019-04-16T01:02:54.193Z,24.73
2019-04-16T01:05:25.724Z,23.17
2019-04-16T01:07:57.262Z,26.80
2019-04-16T01:10:29.237Z,26.53
2019-04-16T01:13:01.062Z,25.03
2019-04-16T01:15:33.112Z,22.75
2019-04-16T01:18:07.818Z,23.67
2019-04-16T01:20:42.821Z,21.77
2019-04-16T01:23:17.592Z,23.57
2019-04-16T01:25:46.359Z,26.10
2019-04-16T01:28:20.765Z,21.33
2019-04-16T01:31:17.446Z,26.73
2019-04-16T01:34:03.266Z,23.50
2019-04-16T01:36:54.263Z,25.30
2019-04-16T01:39:28.027Z,22.07
2019-04-16T01:41:59.752Z,24.57
2019-04-16T01:44:31.564Z,27.80
2019-04-16T01:47:04.161Z,22.00
2019-04-16T01:49:39.386Z,26.27
2019-04-16T01:52:10.576Z,23.30
2019-04-16T01:54:42.761Z,23.77
2019-04-16T01:57:14.403Z,25.27
2019-04-16T01:59:46.247Z,22.65
2019-04-16T02:02:18.884Z,26.77
2019-04-16T02:04:52.118Z,24.63
2019-04-16T02:07:27.722Z,24.80
2019-04-16T02:09:57.326Z,24.13
2019-04-16T02:12:29.699Z,27.77
2019-04-16T02:15:01.568Z,26.33
2019-04-16T02:17:34.383Z,26.30
2019-04-16T02:20:07.581Z,24.23
2019-04-16T02:22:42.228Z,26.97
2019-04-16T02:25:19.028Z,27.67
2019-04-16T02:27:48.716Z,27.43
2019-04-16T02:30:20.366Z,25.90
2019-04-16T02:32:51.988Z,25.30
2019-04-16T02:35:24.917Z,27.35
2019-04-16T02:37:56.681Z,27.60
2019-04-16T02:40:28.572Z,29.40
2019-04-16T02:43:04.781Z,25.17
2019-04-16T02:45:33.825Z,27.63
2019-04-16T02:48:05.836Z,28.90
2019-04-16T02:51:05.472Z,26.20
2019-04-16T02:53:58.895Z,27.07
2019-04-16T02:56:51.614Z,29.37
2019-04-16T02:59:25.587Z,28.80
2019-04-16T03:02:24.345Z,26.40
2019-04-16T03:05:14.986Z,28.73
2019-04-16T03:07:47.113Z,26.77
2019-04-16T03:10:19.670Z,28.77
2019-04-16T03:12:52.937Z,30.47
2019-04-16T03:15:42.842Z,26.57
2019-04-16T03:18:16.225Z,27.05
2019-04-16T03:20:49.500Z,26.13
2019-04-16T03:23:21.141Z,26.00
2019-04-16T03:25:53.866Z,28.07
2019-04-16T03:28:27.183Z,27.53
2019-04-16T03:30:59.090Z,30.43
2019-04-16T03:33:30.697Z,25.67
2019-04-16T03:36:03.903Z,28.10
2019-04-16T03:38:37.356Z,26.43
2019-04-16T03:41:09.098Z,27.90
2019-04-16T03:43:41.014Z,26.10
2019-04-16T03:46:14.514Z,28.45
2019-04-16T03:48:46.190Z,35.40
2019-04-16T03:51:18.444Z,32.50
2019-04-16T03:53:50.492Z,31.70
2019-04-16T03:56:22.093Z,28.87
2019-04-16T03:58:55.097Z,25.07
2019-04-16T04:01:27.345Z,28.67
2019-04-16T04:03:59.256Z,30.83
2019-04-16T04:06:31.218Z,30.57
2019-04-16T04:09:03.265Z,31.27
2019-04-16T04:11:40.940Z,26.73
2019-04-16T04:14:10.907Z,26.77
2019-04-16T04:16:43.007Z,27.83
2019-04-16T04:19:15.972Z,30.85
2019-04-16T04:21:50.679Z,29.67
2019-04-16T04:24:22.113Z,25.40
2019-04-16T04:26:53.995Z,27.37
2019-04-16T04:29:28.964Z,32.23
2019-04-16T04:32:03.371Z,38.57
2019-04-16T04:34:35.071Z,36.30
2019-04-16T04:37:07.209Z,32.10
2019-04-16T04:39:43.682Z,30.13
2019-04-16T04:42:14.275Z,30.00
2019-04-16T04:44:47.141Z,29.27
2019-04-16T04:47:20.143Z,30.10
2019-04-16T04:49:51.858Z,44.97
2019-04-16T04:52:23.642Z,34.57
2019-04-16T04:54:55.476Z,27.63
2019-04-16T04:57:28.391Z,31.53
2019-04-16T05:00:05.649Z,28.43
2019-04-16T05:02:37.677Z,32.60
2019-04-16T05:05:43.765Z,29.93
2019-04-16T05:08:15.488Z,34.23
2019-04-16T05:10:58.319Z,30.40
2019-04-16T05:13:23.927Z,33.37
2019-04-16T05:15:54.250Z,34.93
2019-04-16T05:18:27.194Z,29.77
2019-04-16T05:20:59.115Z,29.20
2019-04-16T05:23:30.801Z,33.83
2019-04-16T05:26:04.815Z,31.57
2019-04-16T05:28:36.452Z,37.30
2019-04-16T05:31:08.321Z,36.03
2019-04-16T05:33:40.241Z,33.03
2019-04-16T05:36:14.175Z,29.15
2019-04-16T05:38:45.551Z,35.33
2019-04-16T05:41:21.282Z,37.77
2019-04-16T05:43:50.961Z,25.47
2019-04-16T05:46:22.617Z,32.35
2019-04-16T05:48:54.671Z,32.57
2019-04-16T05:51:28.521Z,33.33
2019-04-16T05:54:08.430Z,31.57
2019-04-16T05:56:44.454Z,31.83
2019-04-16T05:59:17.151Z,30.37
2019-04-16T06:01:57.382Z,32.27
2019-04-16T06:04:28.697Z,27.93
2019-04-16T06:07:03.701Z,27.27
2019-04-16T06:09:34.256Z,35.73
2019-04-16T06:12:08.929Z,31.50
2019-04-16T06:14:49.676Z,32.27
2019-04-16T06:17:39.695Z,26.63
2019-04-16T06:20:36.662Z,29.93
2019-04-16T06:23:26.078Z,31.77
2019-04-16T06:26:17.629Z,29.15
2019-04-16T06:29:08.323Z,29.50
2019-04-16T06:31:56.475Z,26.37
2019-04-16T06:34:34.346Z,28.17
2019-04-16T06:37:21.598Z,29.50
2019-04-16T06:40:22.269Z,29.13
2019-04-16T06:43:03.803Z,25.43
2019-04-16T06:45:47.776Z,27.35
2019-04-16T06:48:29.055Z,24.60
2019-04-16T06:51:20.218Z,25.60
2019-04-16T06:54:11.259Z,32.83
2019-04-16T06:57:17.435Z,29.13
2019-04-16T07:00:13.911Z,28.73
2019-04-16T07:03:02.132Z,25.13
2019-04-16T07:05:49.282Z,26.67
2019-04-16T07:08:38.185Z,26.77
2019-04-16T07:11:08.196Z,22.90
2019-04-16T07:13:42.288Z,29.30
2019-04-16T07:16:14.843Z,26.87
2019-04-16T07:18:46.516Z,28.23
2019-04-16T07:21:18.371Z,28.70
2019-04-16T07:23:56.850Z,27.37
2019-04-16T07:26:24.826Z,25.57
2019-04-16T07:29:02.744Z,34.70
2019-04-16T07:31:45.244Z,25.17
2019-04-16T07:34:40.066Z,28.40
2019-04-16T07:37:33.828Z,25.13
2019-04-16T07:40:24.127Z,27.52
2019-04-16T07:43:23.552Z,23.73
2019-04-16T07:46:17.288Z,21.67
2019-04-16T07:49:01.352Z,23.70
2019-04-16T07:51:50.765Z,22.87
2019-04-16T07:54:41.650Z,22.95
2019-04-16T07:57:13.397Z,18.23
2019-04-16T07:59:47.589Z,16.83
2019-04-16T08:02:21.518Z,18.05
2019-04-16T08:04:52.680Z,18.90
2019-04-16T08:07:24.262Z,15.43
2019-04-16T08:10:01.074Z,13.72
2019-04-16T08:12:30.998Z,11.87
2019-04-16T08:15:13.377Z,10.07
2019-04-16T08:17:37.645Z,11.27
2019-04-16T08:20:09.645Z,10.00
2019-04-16T08:22:41.289Z,8.70
2019-04-16T08:25:12.899Z,9.38
2019-04-16T08:27:47.145Z,11.00
2019-04-16T08:30:19.174Z,11.20
2019-04-16T08:32:51.967Z,7.30
2019-04-16T08:35:24.053Z,8.77
2019-04-16T08:37:57.946Z,10.57
2019-04-16T08:40:29.261Z,14.73
2019-04-16T08:43:00.953Z,8.93
2019-04-16T08:45:32.630Z,12.47
2019-04-16T08:48:05.038Z,11.73
2019-04-16T08:50:36.794Z,7.17
2019-04-16T08:53:13.288Z,7.13
2019-04-16T08:55:42.494Z,9.83
2019-04-16T08:58:15.128Z,8.33
2019-04-16T09:00:48.852Z,6.27
2019-04-16T09:03:21.561Z,7.60
2019-04-16T09:05:53.175Z,9.33
2019-04-16T09:08:33.456Z,7.27
2019-04-16T09:11:06.110Z,11.97
2019-04-16T09:13:44.449Z,7.77
2019-04-16T09:16:16.648Z,29.95
2019-04-16T09:19:12.997Z,8.97
2019-04-16T09:21:44.789Z,8.60
2019-04-16T09:24:41.422Z,7.22
2019-04-16T09:27:31.073Z,8.60
2019-04-16T09:30:22.197Z,7.37
2019-04-16T09:33:15.585Z,12.77
2019-04-16T09:36:15.242Z,8.63
2019-04-16T09:38:50.593Z,11.60
2019-04-16T09:41:35.162Z,10.70
2019-04-16T09:44:06.917Z,8.40
2019-04-16T09:46:53.842Z,6.67
2019-04-16T09:49:11.995Z,9.40
2019-04-16T09:51:44.065Z,10.10
2019-04-16T09:54:15.820Z,8.67
2019-04-16T09:56:47.592Z,6.70
2019-04-16T09:59:39.347Z,10.70
2019-04-16T10:02:32.299Z,8.83
2019-04-16T10:05:04.635Z,12.27
2019-04-16T10:07:39.871Z,16.27
2019-04-16T10:10:10.395Z,11.30
2019-04-16T10:12:43.035Z,6.97
2019-04-16T10:15:15.859Z,6.57
2019-04-16T10:17:50.266Z,9.67
2019-04-16T10:20:21.912Z,15.48
2019-04-16T10:22:54.632Z,6.63
2019-04-16T10:25:26.444Z,8.17
2019-04-16T10:28:01.946Z,8.60
2019-04-16T10:30:43.626Z,11.03
2019-04-16T10:33:15.352Z,10.73
2019-04-16T10:35:47.089Z,5.80
2019-04-16T10:38:44.135Z,6.95
2019-04-16T10:41:30.427Z,7.85
2019-04-16T10:44:24.314Z,10.60
2019-04-16T10:47:35.684Z,10.80
2019-04-16T10:50:36.330Z,6.47
2019-04-16T10:53:30.270Z,7.57
2019-04-16T10:56:22.134Z,8.80
2019-04-16T10:59:19.063Z,10.30
2019-04-16T11:02:16.607Z,6.97
2019-04-16T11:05:15.228Z,7.47
2019-04-16T11:07:47.570Z,8.70
2019-04-16T11:10:19.225Z,9.60
2019-04-16T11:12:52.063Z,8.50
2019-04-16T11:15:25.057Z,10.43
2019-04-16T11:17:57.110Z,5.87
2019-04-16T11:20:28.911Z,6.30
2019-04-16T11:23:00.839Z,6.07
2019-04-16T11:25:32.561Z,7.27
2019-04-16T11:28:06.783Z,8.80
2019-04-16T11:30:41.770Z,6.90
2019-04-16T11:33:13.515Z,8.70
2019-04-16T11:35:45.365Z,8.77
2019-04-16T11:38:17.884Z,6.40
2019-04-16T11:40:49.501Z,5.97
2019-04-16T11:43:23.014Z,7.05
2019-04-16T11:45:55.069Z,7.23
2019-04-16T11:48:26.864Z,6.67
2019-04-16T11:50:58.612Z,6.77
2019-04-16T11:53:30.334Z,7.10
2019-04-16T11:56:04.632Z,5.27
2019-04-16T11:58:47.383Z,7.70
2019-04-16T12:01:25.874Z,13.58
2019-04-16T12:04:31.411Z,5.53
2019-04-16T12:07:12.327Z,6.83
2019-04-16T12:10:06.075Z,6.87
2019-04-16T12:12:57.225Z,12.73
2019-04-16T12:15:50.190Z,6.40
2019-04-16T12:18:55.942Z,5.70
2019-04-16T12:21:49.524Z,9.30
2019-04-16T12:24:49.056Z,6.13
2019-04-16T12:27:38.345Z,7.92
2019-04-16T12:30:42.090Z,5.74
2019-04-16T12:33:22.894Z,10.30
2019-04-16T12:36:16.777Z,6.08
2019-04-16T12:39:06.390Z,5.57
2019-04-16T12:42:16.917Z,7.70
2019-04-16T12:44:54.810Z,9.17
2019-04-16T12:47:39.248Z,6.65
2019-04-16T12:50:34.233Z,13.15
2019-04-16T12:53:17.483Z,8.03
2019-04-16T12:56:23.547Z,6.22
2019-04-16T12:59:12.971Z,7.40
2019-04-16T13:02:16.383Z,6.40
2019-04-16T13:05:02.311Z,5.85
2019-04-16T13:07:47.131Z,9.88
2019-04-16T13:10:36.409Z,6.22
2019-04-16T13:13:29.893Z,9.50
2019-04-16T13:16:06.828Z,14.98
2019-04-16T13:18:56.338Z,6.67
2019-04-16T13:21:34.347Z,6.55
2019-04-16T13:24:11.745Z,10.82
2019-04-16T13:26:55.500Z,7.17
2019-04-16T13:29:29.732Z,9.85
2019-04-16T13:32:03.897Z,9.08
2019-04-16T13:34:35.784Z,7.30
2019-04-16T13:37:07.662Z,8.30
2019-04-16T13:40:00.226Z,32.83
2019-04-16T13:42:32.283Z,6.95
2019-04-16T13:45:32.024Z,7.12
2019-04-16T13:48:15.600Z,5.62
2019-04-16T13:50:43.022Z,6.17
2019-04-16T13:53:30.856Z,6.53
2019-04-16T13:56:21.471Z,6.40
2019-04-16T13:59:04.548Z,13.53
2019-04-16T14:01:45.061Z,5.87
2019-04-16T14:04:13.752Z,6.15
2019-04-16T14:06:46.345Z,6.92
2019-04-16T14:09:18.239Z,5.87
2019-04-16T14:11:51.323Z,9.05
2019-04-16T14:14:24.840Z,7.22
2019-04-16T14:16:56.982Z,5.67
2019-04-16T14:19:28.575Z,7.78
2019-04-16T14:22:01.755Z,9.80
2019-04-16T14:24:33.589Z,4.83
2019-04-16T14:27:06.044Z,7.50
2019-04-16T14:29:38.897Z,5.08
2019-04-16T14:32:12.225Z,4.50
2019-04-16T14:34:55.337Z,6.67
2019-04-16T14:37:27.076Z,3.70
2019-04-16T14:40:26.943Z,9.95
2019-04-16T14:42:59.325Z,7.00
2019-04-16T14:45:59.329Z,4.25
2019-04-16T14:48:30.278Z,4.45
2019-04-16T14:51:02.969Z,5.30
2019-04-16T14:53:56.870Z,6.08
2019-04-16T14:56:40.695Z,7.03
2019-04-16T14:59:30.248Z,6.37
2019-04-16T15:02:16.539Z,5.80
2019-04-16T15:05:08.947Z,7.70
2019-04-16T15:08:04.667Z,8.15
2019-04-16T15:10:54.694Z,9.95
2019-04-16T15:13:42.322Z,7.57
2019-04-16T15:16:40.717Z,6.63
2019-04-16T15:19:20.714Z,8.63
2019-04-16T15:22:14.081Z,5.45
2019-04-16T15:24:50.951Z,5.60
2019-04-16T15:27:37.063Z,6.65
2019-04-16T15:30:31.619Z,7.53
2019-04-16T15:33:40.716Z,7.30
2019-04-16T15:36:19.749Z,8.23
2019-04-16T15:39:10.473Z,5.57
2019-04-16T15:42:16.346Z,6.92
2019-04-16T15:44:52.558Z,6.85
2019-04-16T15:47:42.948Z,6.72
2019-04-16T15:50:18.626Z,7.20
2019-04-16T15:52:59.006Z,5.23
2019-04-16T15:55:48.024Z,5.17
2019-04-16T15:58:26.787Z,7.30
2019-04-16T16:01:36.571Z,7.07
2019-04-16T16:04:11.207Z,5.33
2019-04-16T16:06:56.473Z,4.67
2019-04-16T16:09:41.842Z,5.70
2019-04-16T16:12:22.071Z,5.23
2019-04-16T16:14:51.488Z,6.40
2019-04-16T16:17:23.507Z,6.40
2019-04-16T16:19:55.491Z,7.50
2019-04-16T16:22:27.260Z,5.53
2019-04-16T16:24:59.302Z,8.93
2019-04-16T16:27:31.098Z,5.07
2019-04-16T16:30:03.619Z,6.87
2019-04-16T16:32:37.175Z,4.83
2019-04-16T16:35:09.420Z,4.40
2019-04-16T16:37:42.258Z,5.43
2019-04-16T16:40:15.205Z,4.15
2019-04-16T16:42:48.982Z,4.20
2019-04-16T16:45:22.805Z,6.35
2019-04-16T16:47:54.426Z,5.00
2019-04-16T16:50:26.238Z,4.57
2019-04-16T16:53:15.558Z,4.77
2019-04-16T16:55:50.734Z,4.57
2019-04-16T16:58:42.405Z,5.42
2019-04-16T17:01:42.336Z,5.33
2019-04-16T17:04:23.125Z,6.60
2019-04-16T17:06:56.372Z,5.80
2019-04-16T17:09:37.006Z,9.33
2019-04-16T17:12:08.685Z,7.80
2019-04-16T17:14:40.669Z,9.20
2019-04-16T17:17:15.164Z,11.43
2019-04-16T17:19:50.715Z,6.90
2019-04-16T17:22:21.334Z,7.33
2019-04-16T17:24:53.055Z,8.67
2019-04-16T17:27:24.832Z,7.10
2019-04-16T17:29:56.868Z,8.90
2019-04-16T17:32:29.170Z,6.37
2019-04-16T17:35:00.752Z,7.33
2019-04-16T17:37:33.831Z,6.00
2019-04-16T17:40:19.047Z,9.35
2019-04-16T17:42:53.299Z,6.20
2019-04-16T17:45:47.045Z,6.43
2019-04-16T17:48:36.684Z,6.67
2019-04-16T17:51:27.310Z,7.00
2019-04-16T17:54:06.693Z,6.70
2019-04-16T17:57:15.372Z,11.17
2019-04-16T18:00:00.478Z,13.67
2019-04-16T18:02:48.566Z,9.17
2019-04-16T18:05:48.669Z,24.27
2019-04-16T18:08:41.742Z,15.03
2019-04-16T18:11:20.996Z,15.77
2019-04-16T18:14:12.575Z,17.77
2019-04-16T18:16:54.128Z,17.03
2019-04-16T18:20:00.596Z,16.20
2019-04-16T18:22:41.948Z,15.00
2019-04-16T18:25:32.776Z,13.68
2019-04-16T18:28:09.483Z,16.27
2019-04-16T18:30:55.190Z,14.00
2019-04-16T18:33:49.064Z,17.80
2019-04-16T18:36:31.293Z,7.87
2019-04-16T18:39:21.891Z,8.43
2019-04-16T18:42:19.985Z,13.60
2019-04-16T18:45:11.671Z,10.37
2019-04-16T18:48:01.509Z,9.30
2019-04-16T18:50:27.948Z,11.78
2019-04-16T18:52:57.485Z,9.07
2019-04-16T18:55:29.216Z,9.13
2019-04-16T18:58:01.739Z,7.97
2019-04-16T19:00:45.529Z,9.70
2019-04-16T19:03:17.357Z,8.95
2019-04-16T19:05:49.691Z,8.20
2019-04-16T19:08:21.591Z,43.00
2019-04-16T19:10:53.431Z,9.03
2019-04-16T19:13:25.103Z,7.40
2019-04-16T19:15:57.038Z,6.83
2019-04-16T19:18:28.554Z,5.43
2019-04-16T19:21:00.741Z,5.72
2019-04-16T19:23:32.455Z,5.10
2019-04-16T19:26:04.815Z,6.97
2019-04-16T19:28:39.619Z,4.90
2019-04-16T19:31:12.192Z,4.73
2019-04-16T19:33:44.373Z,4.95
2019-04-16T19:36:16.326Z,5.00
2019-04-16T19:38:48.759Z,4.87
2019-04-16T19:41:24.396Z,5.85
2019-04-16T19:43:54.488Z,6.53
2019-04-16T19:46:26.908Z,5.47
2019-04-16T19:49:01.725Z,6.47
2019-04-16T19:51:33.711Z,6.00
2019-04-16T19:54:06.730Z,6.62
2019-04-16T19:56:38.672Z,6.67
2019-04-16T19:59:10.501Z,6.00
2019-04-16T20:01:42.458Z,6.53
2019-04-16T20:04:14.877Z,6.80
2019-04-16T20:06:46.834Z,7.00
2019-04-16T20:09:18.536Z,7.10
2019-04-16T20:11:54.690Z,7.23
2019-04-16T20:14:23.551Z,6.30
2019-04-16T20:16:55.317Z,7.27
2019-04-16T20:19:27.055Z,7.07
2019-04-16T20:21:59.648Z,6.97
2019-04-16T20:24:31.693Z,6.93
2019-04-16T20:27:06.718Z,6.33
2019-04-16T20:29:38.366Z,7.10
2019-04-16T20:32:10.209Z,7.40
2019-04-16T20:34:46.250Z,7.40
2019-04-16T20:37:17.951Z,6.90
2019-04-16T20:39:49.874Z,6.77
2019-04-16T20:42:21.714Z,6.60
2019-04-16T20:44:54.593Z,7.77
2019-04-16T20:47:26.970Z,8.10
2019-04-16T20:49:59.050Z,8.13
2019-04-16T20:52:30.933Z,7.67
2019-04-16T20:55:04.836Z,7.87
2019-04-16T20:57:39.081Z,8.67
2019-04-16T21:00:12.893Z,9.13
2019-04-16T21:02:44.978Z,9.67
2019-04-16T21:05:22.382Z,9.43
2019-04-16T21:07:51.388Z,10.20
2019-04-16T21:10:23.255Z,9.67
2019-04-16T21:12:56.943Z,10.13
2019-04-16T21:15:29.084Z,10.43
2019-04-16T21:18:00.914Z,11.27
2019-04-16T21:20:33.770Z,12.40
2019-04-16T21:23:05.963Z,13.10
2019-04-16T21:25:37.935Z,12.47
2019-04-16T21:28:26.713Z,12.50
2019-04-16T21:31:04.153Z,12.23
2019-04-16T21:33:55.003Z,13.13
2019-04-16T21:36:49.000Z,13.67
2019-04-16T21:39:26.285Z,12.57
2019-04-16T21:42:01.784Z,13.80
2019-04-16T21:44:31.665Z,12.67
2019-04-16T21:47:03.523Z,12.00
2019-04-16T21:49:38.980Z,11.57
2019-04-16T21:52:09.245Z,12.23
2019-04-16T21:54:41.375Z,12.88
2019-04-16T21:57:14.383Z,13.50
2019-04-16T21:59:46.382Z,13.58
2019-04-16T22:02:22.577Z,14.73
2019-04-16T22:04:55.251Z,15.23
2019-04-16T22:07:27.555Z,15.53
2019-04-16T22:09:59.756Z,15.80
2019-04-16T22:12:31.534Z,15.57
2019-04-16T22:15:03.294Z,15.20
2019-04-16T22:17:36.799Z,15.47
2019-04-16T22:20:10.150Z,15.83
2019-04-16T22:22:43.689Z,17.27
2019-04-16T22:25:16.353Z,16.87
2019-04-16T22:27:47.971Z,17.37
2019-04-16T22:30:20.215Z,17.43
2019-04-16T22:32:52.490Z,17.25
2019-04-16T22:35:24.478Z,17.00
2019-04-16T22:37:56.426Z,17.10
2019-04-16T22:40:55.005Z,18.98
2019-04-16T22:43:45.368Z,18.23
2019-04-16T22:46:24.051Z,16.90
2019-04-16T22:48:56.806Z,17.73
2019-04-16T22:51:28.586Z,17.07
2019-04-16T22:54:00.449Z,18.13
2019-04-16T22:56:45.950Z,16.63
2019-04-16T22:59:19.026Z,17.37
2019-04-16T23:01:53.221Z,17.33
2019-04-16T23:04:25.974Z,18.03
2019-04-16T23:06:57.835Z,16.67
2019-04-16T23:09:31.109Z,17.37
2019-04-16T23:12:03.528Z,17.50
2019-04-16T23:14:35.672Z,16.53
2019-04-16T23:17:13.431Z,16.27
2019-04-16T23:19:42.487Z,19.03
2019-04-16T23:22:15.385Z,17.05
2019-04-16T23:24:48.145Z,16.27
2019-04-16T23:27:20.571Z,17.80
2019-04-16T23:29:52.287Z,17.20
2019-04-16T23:32:27.666Z,16.50
2019-04-16T23:34:57.390Z,16.77
2019-04-16T23:37:31.656Z,17.67
2019-04-16T23:40:07.195Z,17.73
2019-04-16T23:42:40.305Z,17.90
2019-04-16T23:45:31.465Z,17.93
2019-04-16T23:48:31.323Z,18.33
2019-04-16T23:51:16.937Z,18.07
2019-04-16T23:53:52.320Z,17.70
2019-04-16T23:56:28.706Z,19.53
2019-04-16T23:59:04.630Z,19.43
